createdAt,value
2022-10-30T00:00:43.291Z,70471.69
2022-10-30T00:03:13.495Z,70467.56
2022-10-30T00:05:46.454Z,70458.41
2022-10-30T00:08:15.612Z,70472.28
2022-10-30T00:10:44.441Z,70526.25
2022-10-30T00:13:12.850Z,70458.44
2022-10-30T00:15:40.568Z,70448.38
2022-10-30T00:18:07.867Z,70480.88
2022-10-30T00:20:37.520Z,70465.28
2022-10-30T00:23:05.660Z,70437.31
2022-10-30T00:25:34.505Z,70454.41
2022-10-30T00:28:02.577Z,70433.72
2022-10-30T00:30:29.907Z,70479.75
2022-10-30T00:32:58.043Z,70446.78
2022-10-30T00:35:25.484Z,70446.78
2022-10-30T00:37:52.884Z,70428.78
2022-10-30T00:40:20.808Z,70495.97
2022-10-30T00:42:48.808Z,70437.34
2022-10-30T00:45:17.530Z,70442.66
2022-10-30T00:48:00.671Z,70461.50
2022-10-30T00:50:34.277Z,70463.25
2022-10-30T00:53:12.660Z,70447.63
2022-10-30T00:56:02.598Z,70470.31
2022-10-30T00:58:44.973Z,70450.28
2022-10-30T01:01:20.122Z,70473.56
2022-10-30T01:03:50.467Z,70447.94
2022-10-30T01:06:19.347Z,70452.06
2022-10-30T01:08:47.630Z,70448.28
2022-10-30T01:11:15.246Z,70475.63
2022-10-30T01:13:47.021Z,70476.56
2022-10-30T01:16:34.313Z,70478.34
2022-10-30T01:19:20.821Z,70448.63
2022-10-30T01:22:09.950Z,70434.50
2022-10-30T01:24:49.456Z,70428.38
2022-10-30T01:27:40.171Z,70433.38
2022-10-30T01:30:35.962Z,70427.78
2022-10-30T01:33:06.116Z,70390.38
2022-10-30T01:35:44.161Z,70398.66
2022-10-30T01:38:18.501Z,70393.97
2022-10-30T01:40:48.362Z,70442.31
2022-10-30T01:43:15.998Z,70416.41
2022-10-30T01:46:01.955Z,70403.47
2022-10-30T01:48:53.868Z,70387.84
2022-10-30T01:51:27.358Z,70407.00
2022-10-30T01:54:00.747Z,70366.06
2022-10-30T01:56:49.621Z,70370.50
2022-10-30T01:59:35.093Z,70402.84
2022-10-30T02:02:02.953Z,70375.78
2022-10-30T02:04:32.305Z,70417.94
2022-10-30T02:06:59.713Z,70398.78
2022-10-30T02:09:27.225Z,70378.09
2022-10-30T02:11:55.578Z,70399.97
2022-10-30T02:14:35.163Z,70421.19
2022-10-30T02:17:08.091Z,70391.41
2022-10-30T02:19:35.903Z,70398.19
2022-10-30T02:22:04.261Z,70368.75
2022-10-30T02:24:33.343Z,70394.66
2022-10-30T02:27:00.704Z,70388.19
2022-10-30T02:29:28.182Z,70403.78
2022-10-30T02:31:55.597Z,70383.78
2022-10-30T02:34:23.197Z,70389.72
2022-10-30T02:36:50.539Z,70377.03
2022-10-30T02:39:20.111Z,70382.38
2022-10-30T02:41:48.576Z,70398.56
2022-10-30T02:44:15.947Z,70364.69
2022-10-30T02:46:43.275Z,70375.34
2022-10-30T02:49:11.125Z,70370.31
2022-10-30T02:51:38.416Z,70398.84
2022-10-30T02:54:05.909Z,70424.72
2022-10-30T02:56:33.428Z,70398.22
2022-10-30T02:59:01.238Z,70388.78
2022-10-30T03:01:29.112Z,70410.00
2022-10-30T03:03:58.915Z,70412.06
2022-10-30T03:06:26.274Z,70407.03
2022-10-30T03:08:53.624Z,70397.03
2022-10-30T03:11:21.733Z,70437.66
2022-10-30T03:13:49.759Z,70419.69
2022-10-30T03:16:23.499Z,70421.75
2022-10-30T03:18:51.946Z,70415.25
2022-10-30T03:21:21.632Z,70419.66
2022-10-30T03:23:50.671Z,70358.03
2022-10-30T03:26:19.354Z,70427.00
2022-10-30T03:28:56.740Z,70425.22
2022-10-30T03:31:24.139Z,70409.31
2022-10-30T03:34:08.357Z,70395.13
2022-10-30T03:36:35.822Z,70444.91
2022-10-30T03:39:03.492Z,70414.28
2022-10-30T03:41:32.749Z,70391.00
2022-10-30T03:44:00.304Z,70351.81
2022-10-30T03:46:28.054Z,70429.63
2022-10-30T03:49:03.648Z,70430.19
2022-10-30T03:51:31.021Z,70407.78
2022-10-30T03:53:58.930Z,70426.63
2022-10-30T03:56:28.048Z,70442.84
2022-10-30T03:58:59.440Z,70420.44
2022-10-30T04:01:27.043Z,70412.50
2022-10-30T04:03:57.591Z,70401.88
2022-10-30T04:06:26.262Z,70436.34
2022-10-30T04:08:55.443Z,70412.75
2022-10-30T04:11:24.169Z,70379.78
2022-10-30T04:13:51.636Z,70401.63
2022-10-30T04:16:18.948Z,70423.44
2022-10-30T04:18:46.322Z,70386.91
2022-10-30T04:21:13.659Z,70377.19
2022-10-30T04:23:41.139Z,70432.56
2022-10-30T04:26:09.941Z,70449.06
2022-10-30T04:28:40.486Z,70400.44
2022-10-30T04:31:08.624Z,70419.63
2022-10-30T04:33:36.327Z,70418.16
2022-10-30T04:36:03.865Z,70418.75
2022-10-30T04:38:32.472Z,70426.63
2022-10-30T04:41:00.996Z,70448.19
2022-10-30T04:43:43.263Z,70421.66
2022-10-30T04:46:10.658Z,70444.06
2022-10-30T04:48:39.130Z,70368.63
2022-10-30T04:51:07.164Z,70403.38
2022-10-30T04:53:34.496Z,70414.94
2022-10-30T04:56:07.257Z,70386.09
2022-10-30T04:58:34.648Z,70445.56
2022-10-30T05:01:07.625Z,70390.22
2022-10-30T05:03:36.364Z,70380.22
2022-10-30T05:06:16.721Z,70379.38
2022-10-30T05:08:44.045Z,70382.91
2022-10-30T05:11:22.976Z,70407.38
2022-10-30T05:13:50.403Z,70326.72
2022-10-30T05:16:18.264Z,70397.72
2022-10-30T05:18:45.650Z,70394.47
2022-10-30T05:21:13.373Z,70390.06
2022-10-30T05:23:40.836Z,70356.50
2022-10-30T05:26:08.396Z,70404.16
2022-10-30T05:28:35.961Z,70369.13
2022-10-30T05:31:04.674Z,70346.19
2022-10-30T05:34:07.262Z,70367.97
2022-10-30T05:36:37.514Z,70396.53
2022-10-30T05:39:05.318Z,70402.09
2022-10-30T05:41:37.992Z,70354.72
2022-10-30T05:44:05.697Z,70365.31
2022-10-30T05:46:34.083Z,70372.06
2022-10-30T05:49:18.077Z,70400.03
2022-10-30T05:51:45.791Z,70385.59
2022-10-30T05:54:13.199Z,70382.31
2022-10-30T05:56:53.444Z,70390.59
2022-10-30T05:59:21.037Z,70404.72
2022-10-30T06:01:48.371Z,70392.00
2022-10-30T06:04:15.820Z,70423.22
2022-10-30T06:06:43.688Z,70395.78
2022-10-30T06:09:11.031Z,70399.59
2022-10-30T06:12:03.719Z,70419.00
2022-10-30T06:14:57.081Z,70420.44
2022-10-30T06:17:25.610Z,70445.50
2022-10-30T06:20:01.191Z,70428.97
2022-10-30T06:22:55.674Z,70463.41
2022-10-30T06:25:26.996Z,70447.44
2022-10-30T06:28:01.920Z,70428.00
2022-10-30T06:30:31.571Z,70396.75
2022-10-30T06:33:04.086Z,70477.50
2022-10-30T06:35:32.673Z,70452.44
2022-10-30T06:38:01.184Z,70449.44
2022-10-30T06:40:31.031Z,70463.88
2022-10-30T06:43:37.225Z,70498.00
2022-10-30T06:46:09.892Z,70470.81
2022-10-30T06:48:40.742Z,70480.81
2022-10-30T06:51:08.278Z,70477.22
2022-10-30T06:53:38.943Z,70482.19
2022-10-30T06:56:29.388Z,70522.53
2022-10-30T06:59:29.127Z,70516.63
2022-10-30T07:02:28.557Z,70526.59
2022-10-30T07:04:59.432Z,70550.19
2022-10-30T07:07:26.984Z,70544.84
2022-10-30T07:09:54.382Z,70546.94
2022-10-30T07:12:30.341Z,70525.31
2022-10-30T07:15:01.725Z,70514.72
2022-10-30T07:17:43.781Z,70496.19
2022-10-30T07:20:23.165Z,70538.97
2022-10-30T07:22:51.044Z,70523.03
2022-10-30T07:25:19.387Z,70551.66
2022-10-30T07:27:58.128Z,70522.94
2022-10-30T07:30:48.590Z,70556.00
2022-10-30T07:33:27.187Z,70586.06
2022-10-30T07:36:04.035Z,70538.25
2022-10-30T07:38:52.219Z,70532.56
2022-10-30T07:41:28.959Z,70627.88
2022-10-30T07:44:15.100Z,70596.53
2022-10-30T07:46:47.680Z,70593.53
2022-10-30T07:49:45.407Z,70607.03
2022-10-30T07:52:17.186Z,70637.38
2022-10-30T07:54:46.924Z,70652.09
2022-10-30T07:57:39.431Z,70613.66
2022-10-30T08:00:29.649Z,70655.22
2022-10-30T08:03:12.610Z,70674.13
2022-10-30T08:06:06.080Z,70675.84
2022-10-30T08:08:39.094Z,70671.06
2022-10-30T08:11:25.413Z,70644.16
2022-10-30T08:13:54.230Z,70659.50
2022-10-30T08:16:21.687Z,70675.75
2022-10-30T08:18:51.104Z,70719.47
2022-10-30T08:21:21.361Z,70678.13
2022-10-30T08:24:07.294Z,70707.09
2022-10-30T08:26:35.628Z,70678.41
2022-10-30T08:29:03.934Z,70696.44
2022-10-30T08:31:31.796Z,70704.38
2022-10-30T08:34:01.992Z,70694.34
2022-10-30T08:36:40.792Z,70667.41
2022-10-30T08:39:09.333Z,70715.81
2022-10-30T08:41:45.095Z,70714.59
2022-10-30T08:44:12.777Z,70749.41
2022-10-30T08:47:00.348Z,70760.59
2022-10-30T08:49:28.082Z,70771.19
2022-10-30T08:51:58.231Z,70744.81
2022-10-30T08:54:26.742Z,70776.94
2022-10-30T08:56:55.291Z,70800.25
2022-10-30T08:59:23.977Z,70784.47
2022-10-30T09:01:54.190Z,70838.84
2022-10-30T09:04:21.792Z,70845.00
2022-10-30T09:07:10.338Z,70853.19
2022-10-30T09:09:59.082Z,70903.13
2022-10-30T09:12:30.351Z,70922.88
2022-10-30T09:14:57.746Z,70920.16
2022-10-30T09:17:25.742Z,70942.03
2022-10-30T09:19:54.567Z,70973.38
2022-10-30T09:22:32.990Z,70960.81
2022-10-30T09:25:00.679Z,70991.81
2022-10-30T09:27:47.130Z,71012.09
2022-10-30T09:30:17.973Z,71026.28
2022-10-30T09:32:59.317Z,71017.31
2022-10-30T09:35:46.843Z,71046.25
2022-10-30T09:38:15.125Z,71081.72
2022-10-30T09:41:13.677Z,71081.28
2022-10-30T09:43:53.787Z,71145.03
2022-10-30T09:47:11.647Z,71117.31
2022-10-30T09:50:01.706Z,71190.16
2022-10-30T09:53:02.562Z,71333.66
2022-10-30T09:55:36.796Z,71496.81
2022-10-30T09:58:10.000Z,71716.44
2022-10-30T10:00:39.908Z,71887.00
2022-10-30T10:03:34.532Z,72009.00
2022-10-30T10:06:24.363Z,72216.28
2022-10-30T10:09:20.823Z,72117.41
2022-10-30T10:12:13.436Z,71970.97
2022-10-30T10:14:47.134Z,71945.09
2022-10-30T10:17:24.317Z,71940.06
2022-10-30T10:19:59.597Z,72129.03
2022-10-30T10:22:42.427Z,72284.75
2022-10-30T10:25:16.933Z,72519.75
2022-10-30T10:28:03.185Z,72683.91
2022-10-30T10:30:52.009Z,72625.94
2022-10-30T10:34:00.245Z,72539.00
2022-10-30T10:37:08.470Z,72760.72
2022-10-30T10:39:42.744Z,73001.78
2022-10-30T10:42:20.215Z,73100.72
2022-10-30T10:45:02.525Z,73221.75
2022-10-30T10:47:36.235Z,73070.38
2022-10-30T10:50:25.536Z,72895.34
2022-10-30T10:53:18.845Z,73069.94
2022-10-30T10:55:51.351Z,73201.06
2022-10-30T10:58:39.270Z,73035.44
2022-10-30T11:01:14.122Z,72723.09
2022-10-30T11:03:57.612Z,72487.09
2022-10-30T11:06:35.055Z,72309.84
2022-10-30T11:09:23.122Z,72495.78
2022-10-30T11:11:52.688Z,72865.84
2022-10-30T11:14:23.432Z,73211.31
2022-10-30T11:17:09.397Z,73423.59
2022-10-30T11:19:36.786Z,73578.22
2022-10-30T11:22:17.087Z,73617.53
2022-10-30T11:24:44.506Z,73626.97
2022-10-30T11:27:24.148Z,73565.78
2022-10-30T11:30:02.531Z,73532.88
2022-10-30T11:32:32.973Z,73535.94
2022-10-30T11:35:02.946Z,73480.25
2022-10-30T11:37:32.793Z,73445.28
2022-10-30T11:40:07.268Z,73361.34
2022-10-30T11:42:36.162Z,73385.22
2022-10-30T11:45:04.770Z,73472.41
2022-10-30T11:47:37.959Z,73565.91
2022-10-30T11:50:30.149Z,73579.44
2022-10-30T11:53:10.447Z,73715.66
2022-10-30T11:55:46.558Z,73722.19
2022-10-30T11:58:33.721Z,73622.34
2022-10-30T12:01:13.612Z,73585.38
2022-10-30T12:03:42.490Z,73558.50
2022-10-30T12:06:39.069Z,73535.50
2022-10-30T12:09:23.192Z,73501.41
2022-10-30T12:11:50.898Z,73437.97
2022-10-30T12:14:24.934Z,73443.84
2022-10-30T12:16:55.188Z,73258.09
2022-10-30T12:19:26.348Z,73002.38
2022-10-30T12:21:58.531Z,72738.25
2022-10-30T12:24:37.865Z,72575.59
2022-10-30T12:27:13.978Z,72372.06
2022-10-30T12:30:07.356Z,72245.22
2022-10-30T12:32:51.276Z,72168.56
2022-10-30T12:35:42.972Z,72099.00
2022-10-30T12:38:18.174Z,72081.31
2022-10-30T12:41:04.075Z,72031.44
2022-10-30T12:43:35.037Z,72007.81
2022-10-30T12:46:24.440Z,71950.84
2022-10-30T12:49:03.313Z,71917.97
2022-10-30T12:51:38.828Z,71910.88
2022-10-30T12:54:30.955Z,71903.25
2022-10-30T12:57:10.746Z,71856.66
2022-10-30T12:59:55.339Z,71846.56
2022-10-30T13:03:02.193Z,71852.91
2022-10-30T13:05:35.609Z,71840.72
2022-10-30T13:08:20.753Z,71803.16
2022-10-30T13:10:53.000Z,71773.09
2022-10-30T13:13:29.882Z,71806.25
2022-10-30T13:15:59.221Z,71762.84
2022-10-30T13:18:27.355Z,71814.56
2022-10-30T13:21:22.603Z,71713.63
2022-10-30T13:24:01.449Z,71751.97
2022-10-30T13:26:56.126Z,71730.84
2022-10-30T13:29:48.589Z,71735.75
2022-10-30T13:33:03.746Z,71714.91
2022-10-30T13:35:44.147Z,71708.09
2022-10-30T13:38:20.616Z,71699.75
2022-10-30T13:40:58.724Z,71702.41
2022-10-30T13:43:49.869Z,71698.53
2022-10-30T13:46:26.165Z,71680.06
2022-10-30T13:49:03.819Z,71667.59
2022-10-30T13:51:42.452Z,71649.16
2022-10-30T13:54:24.659Z,71696.72
2022-10-30T13:56:53.344Z,71628.38
2022-10-30T13:59:47.635Z,71647.56
2022-10-30T14:02:33.142Z,71619.53
2022-10-30T14:05:16.328Z,71613.06
2022-10-30T14:07:50.481Z,71564.50
2022-10-30T14:10:25.706Z,71581.25
2022-10-30T14:13:07.368Z,71580.97
2022-10-30T14:15:43.218Z,71562.94
2022-10-30T14:18:13.552Z,71539.34
2022-10-30T14:21:21.089Z,71535.31
2022-10-30T14:23:48.497Z,71488.25
2022-10-30T14:26:21.583Z,71490.72
2022-10-30T14:28:51.270Z,71466.94
2022-10-30T14:31:32.114Z,71518.94
2022-10-30T14:34:00.385Z,71460.56
2022-10-30T14:36:40.182Z,71470.16
2022-10-30T14:39:10.769Z,71414.88
2022-10-30T14:42:13.134Z,71433.97
2022-10-30T14:45:13.415Z,71418.91
2022-10-30T14:48:00.152Z,71360.63
2022-10-30T14:50:27.515Z,71365.50
2022-10-30T14:53:22.540Z,71365.91
2022-10-30T14:56:26.694Z,71349.91
2022-10-30T14:59:21.406Z,71320.78
2022-10-30T15:01:52.723Z,71345.59
2022-10-30T15:04:49.802Z,71282.25
2022-10-30T15:07:45.263Z,71269.28
2022-10-30T15:10:31.345Z,71236.06
2022-10-30T15:13:08.082Z,71279.59
2022-10-30T15:15:36.086Z,71274.84
2022-10-30T15:18:20.493Z,71241.91
2022-10-30T15:20:55.572Z,71214.06
2022-10-30T15:23:29.776Z,71178.19
2022-10-30T15:26:06.444Z,71187.50
2022-10-30T15:28:38.807Z,71154.53
2022-10-30T15:31:24.062Z,71164.75
2022-10-30T15:33:54.198Z,71171.06
2022-10-30T15:36:35.029Z,71138.16
2022-10-30T15:39:12.763Z,71130.78
2022-10-30T15:41:57.128Z,71137.75
2022-10-30T15:44:29.456Z,71123.22
2022-10-30T15:47:00.972Z,71080.22
2022-10-30T15:49:36.496Z,71073.22
2022-10-30T15:52:14.060Z,71059.28
2022-10-30T15:54:44.066Z,71068.59
2022-10-30T15:58:02.429Z,71047.91
2022-10-30T16:00:36.775Z,70987.75
2022-10-30T16:03:16.020Z,71037.88
2022-10-30T16:05:43.716Z,70984.44
2022-10-30T16:08:22.589Z,70979.19
2022-10-30T16:10:54.365Z,71026.13
2022-10-30T16:13:29.860Z,70982.28
2022-10-30T16:15:57.450Z,71008.44
2022-10-30T16:18:30.587Z,70950.38
2022-10-30T16:21:08.513Z,70996.38
2022-10-30T16:23:41.457Z,70967.75
2022-10-30T16:26:30.023Z,70951.19
2022-10-30T16:28:59.121Z,70906.72
2022-10-30T16:31:33.182Z,70953.94
2022-10-30T16:34:02.118Z,70896.78
2022-10-30T16:36:30.544Z,70840.56
2022-10-30T16:38:58.663Z,70889.22
2022-10-30T16:41:28.361Z,70861.69
2022-10-30T16:44:15.093Z,70900.53
2022-10-30T16:46:48.125Z,70841.94
2022-10-30T16:49:22.489Z,70871.31
2022-10-30T16:51:58.704Z,70834.94
2022-10-30T16:54:38.908Z,70836.81
2022-10-30T16:57:27.119Z,70837.47
2022-10-30T16:59:56.194Z,70820.34
2022-10-30T17:02:29.297Z,70826.84
2022-10-30T17:05:08.444Z,70812.13
2022-10-30T17:07:37.098Z,70791.44
2022-10-30T17:10:41.942Z,70793.53
2022-10-30T17:13:34.378Z,70763.97
2022-10-30T17:16:25.667Z,70793.31
2022-10-30T17:18:55.163Z,70784.47
2022-10-30T17:21:42.099Z,70758.44
2022-10-30T17:24:29.041Z,70749.09
2022-10-30T17:26:58.483Z,70739.03
2022-10-30T17:29:52.709Z,70758.56
2022-10-30T17:32:25.556Z,70753.28
2022-10-30T17:35:14.810Z,70718.44
2022-10-30T17:37:42.522Z,70744.75
2022-10-30T17:40:10.912Z,70729.72
2022-10-30T17:42:38.857Z,70691.28
2022-10-30T17:45:10.328Z,70725.31
2022-10-30T17:47:38.002Z,70709.13
2022-10-30T17:50:06.315Z,70681.94
2022-10-30T17:52:34.801Z,70702.06
2022-10-30T17:55:02.848Z,70682.88
2022-10-30T17:57:30.180Z,70693.84
2022-10-30T17:59:57.605Z,70704.53
2022-10-30T18:02:25.082Z,70637.72
2022-10-30T18:04:54.941Z,70667.34
2022-10-30T18:07:22.514Z,70670.91
2022-10-30T18:09:49.849Z,70672.72
2022-10-30T18:12:19.174Z,70647.28
2022-10-30T18:14:46.635Z,70668.31
2022-10-30T18:17:13.994Z,70644.09
2022-10-30T18:19:41.268Z,70657.09
2022-10-30T18:22:10.363Z,70653.84
2022-10-30T18:24:37.741Z,70668.66
2022-10-30T18:27:05.160Z,70607.22
2022-10-30T18:29:32.669Z,70645.06
2022-10-30T18:32:00.924Z,70661.69
2022-10-30T18:34:29.702Z,70602.63
2022-10-30T18:36:57.179Z,70606.22
2022-10-30T18:39:24.636Z,70583.25
2022-10-30T18:41:52.065Z,70657.69
2022-10-30T18:44:24.260Z,70596.31
2022-10-30T18:46:51.581Z,70586.22
2022-10-30T18:49:23.088Z,70595.72
2022-10-30T18:51:50.665Z,70617.25
2022-10-30T18:54:18.106Z,70605.47
2022-10-30T18:56:47.205Z,70607.63
2022-10-30T18:59:14.564Z,70529.72
2022-10-30T19:01:42.403Z,70559.84
2022-10-30T19:04:11.009Z,70588.22
2022-10-30T19:06:39.198Z,70550.44
2022-10-30T19:09:07.138Z,70520.38
2022-10-30T19:11:36.348Z,70549.91
2022-10-30T19:14:13.635Z,70551.69
2022-10-30T19:16:41.202Z,70525.44
2022-10-30T19:19:08.691Z,70553.81
2022-10-30T19:21:36.741Z,70492.47
2022-10-30T19:24:09.044Z,70514.63
2022-10-30T19:26:36.462Z,70541.53
2022-10-30T19:29:03.871Z,70527.41
2022-10-30T19:31:31.473Z,70502.28
2022-10-30T19:33:58.824Z,70508.81
2022-10-30T19:36:36.273Z,70510.00
2022-10-30T19:39:10.281Z,70474.13
2022-10-30T19:41:38.950Z,70479.44
2022-10-30T19:44:06.805Z,70449.94
2022-10-30T19:46:34.632Z,70481.22
2022-10-30T19:49:12.584Z,70457.94
2022-10-30T19:51:39.945Z,70452.38
2022-10-30T19:54:07.379Z,70441.16
2022-10-30T19:56:34.789Z,70468.34
2022-10-30T19:59:02.234Z,70451.81
2022-10-30T20:01:29.690Z,70463.06
2022-10-30T20:03:57.157Z,70460.69
2022-10-30T20:06:24.555Z,70440.66
2022-10-30T20:08:51.874Z,70489.34
2022-10-30T20:11:19.234Z,70425.94
2022-10-30T20:13:49.359Z,70422.72
2022-10-30T20:16:19.533Z,70441.41
2022-10-30T20:18:46.845Z,70408.38
2022-10-30T20:21:14.473Z,70427.25
2022-10-30T20:23:42.101Z,70419.84
2022-10-30T20:26:29.440Z,70444.91
2022-10-30T20:28:58.798Z,70401.59
2022-10-30T20:31:26.189Z,70411.69
2022-10-30T20:33:53.624Z,70403.47
2022-10-30T20:36:20.937Z,70401.44
2022-10-30T20:38:48.314Z,70447.38
2022-10-30T20:41:25.244Z,70436.84
2022-10-30T20:43:52.846Z,70402.97
2022-10-30T20:46:20.860Z,70392.69
2022-10-30T20:48:48.415Z,70364.97
2022-10-30T20:51:15.966Z,70361.47
2022-10-30T20:53:43.345Z,70386.81
2022-10-30T20:56:11.671Z,70357.38
2022-10-30T20:58:41.234Z,70418.06
2022-10-30T21:01:09.122Z,70418.69
2022-10-30T21:03:36.471Z,70388.63
2022-10-30T21:06:04.230Z,70412.50
2022-10-30T21:08:32.056Z,70366.25
2022-10-30T21:11:03.248Z,70371.03
2022-10-30T21:13:34.290Z,70358.94
2022-10-30T21:16:07.087Z,70338.03
2022-10-30T21:18:34.960Z,70359.56
2022-10-30T21:21:07.923Z,70365.19
2022-10-30T21:23:35.570Z,70369.91
2022-10-30T21:26:05.183Z,70367.84
2022-10-30T21:28:32.657Z,70325.78
2022-10-30T21:31:05.574Z,70324.63
2022-10-30T21:33:34.938Z,70294.25
2022-10-30T21:36:12.897Z,70392.94
2022-10-30T21:38:42.106Z,70337.03
2022-10-30T21:41:11.402Z,70348.78
2022-10-30T21:43:38.810Z,70354.09
2022-10-30T21:46:07.858Z,70330.53
2022-10-30T21:48:35.411Z,70358.81
2022-10-30T21:51:14.481Z,70355.31
2022-10-30T21:53:42.479Z,70345.59
2022-10-30T21:56:21.580Z,70322.34
2022-10-30T21:58:49.566Z,70318.84
2022-10-30T22:01:20.089Z,70334.78
2022-10-30T22:03:47.945Z,70325.66
2022-10-30T22:06:17.098Z,70366.56
2022-10-30T22:08:49.086Z,70332.44
2022-10-30T22:11:16.947Z,70332.16
2022-10-30T22:13:44.864Z,70330.09
2022-10-30T22:16:13.828Z,70302.16
2022-10-30T22:18:41.786Z,70274.81
2022-10-30T22:21:11.561Z,70308.94
2022-10-30T22:23:40.267Z,70374.91
2022-10-30T22:26:14.501Z,70296.63
2022-10-30T22:28:43.044Z,70313.44
2022-10-30T22:31:16.111Z,70297.84
2022-10-30T22:33:44.223Z,70325.81
2022-10-30T22:36:15.077Z,70316.66
2022-10-30T22:38:42.535Z,70311.41
2022-10-30T22:41:15.992Z,70274.88
2022-10-30T22:43:45.268Z,70278.44
2022-10-30T22:46:14.063Z,70296.13
2022-10-30T22:48:41.613Z,70294.69
2022-10-30T22:51:15.106Z,70291.19
2022-10-30T22:53:46.051Z,70262.41
2022-10-30T22:56:17.859Z,70237.13
2022-10-30T22:58:46.850Z,70277.41
2022-10-30T23:01:17.656Z,70278.88
2022-10-30T23:03:45.948Z,70277.16
2022-10-30T23:06:13.956Z,70275.09
2022-10-30T23:08:41.970Z,70248.66
2022-10-30T23:11:10.085Z,70247.47
2022-10-30T23:13:37.767Z,70280.16
2022-10-30T23:16:12.620Z,70257.75
2022-10-30T23:18:40.076Z,70264.53
2022-10-30T23:21:13.551Z,70263.06
2022-10-30T23:23:42.220Z,70231.31
2022-10-30T23:26:16.401Z,70273.34
2022-10-30T23:28:44.812Z,70231.91
2022-10-30T23:31:25.416Z,70295.75
2022-10-30T23:33:55.119Z,70232.22
2022-10-30T23:36:23.620Z,70194.63
2022-10-30T23:39:17.639Z,70227.28
2022-10-30T23:41:45.422Z,70234.63
2022-10-30T23:44:14.764Z,70265.81
2022-10-30T23:46:42.863Z,70244.97
2022-10-30T23:49:10.339Z,70230.56
2022-10-30T23:51:37.719Z,70255.28
2022-10-30T23:54:05.415Z,70235.88
2022-10-30T23:56:32.932Z,70224.69
2022-10-30T23:59:01.053Z,70151.47
